GW0552 Weather Reports


Display with metric or nautical units.
time (UTC)temp
F
wind
direction
speed
MPH
gust
MPH
rain 1hr
in
rain 24hr
in
rain mn
in
humidity
%
barometer
mb
20220928004658 52 65 0.0 0.0 0.00 0.00 0.00 86 1016.5
20220928004157 53 65 0.0 0.0 0.00 0.00 0.00 85 1016.5
20220928003657 53 65 0.0 0.0 0.00 0.00 0.00 84 1016.4
20220928003157 53 65 0.0 0.0 0.00 0.00 0.00 84 1016.2
20220928002656 53 65 0.0 0.0 0.00 0.00 0.00 82 1016.1
20220928002156 53 65 0.0 0.0 0.00 0.00 0.00 81 1016.2
20220928001655 54 65 0.0 0.0 0.00 0.00 0.00 80 1015.8
20220928001154 54 65 0.0 0.0 0.00 0.00 0.00 79 1016.2
20220928000652 54 65 0.0 0.0 0.00 0.00 0.00 79 1015.8
20220928000151 54 65 0.0 0.0 0.00 0.00 0.00 79 1015.8
20220927235649 54 65 0.0 0.0 0.00 0.00 0.00 78 1015.7
20220927235149 55 64 0.0 0.0 0.00 0.00 0.00 77 1015.7
20220927234648 55 56 0.0 0.0 0.00 0.00 0.00 76 1015.3
20220927234147 55 8 0.0 0.0 0.00 0.00 0.00 73 1015.2
20220927233646 56 7 0.0 0.0 0.00 0.00 0.00 74 1015.3
20220927233144 56 18 0.0 0.0 0.00 0.00 0.00 73 1015.2
20220927232644 56 18 0.0 0.0 0.00 0.00 0.00 72 1015.1
20220927232144 57 16 0.0 0.0 0.00 0.00 0.00 71 1015.0
20220927231642 57 25 0.0 0.0 0.00 0.00 0.00 69 1014.9
20220927231142 59 25 0.0 0.0 0.00 0.00 0.00 69 1014.7
20220927230640 60 31 0.0 0.0 0.00 0.00 0.00 62 1015.0
20220927230140 61 17 0.0 0.0 0.00 0.00 0.00 50 1014.7
20220927225639 61 51 0.0 0.0 0.00 0.00 0.00 53 1014.5
20220927225138 61 357 1.0 1.0 0.00 0.00 0.00 51 1014.6
20220927224637 61 3 0.0 1.0 0.00 0.00 0.00 49 1014.6
20220927224137 62 348 1.0 2.0 0.00 0.00 0.00 50 1014.7
20220927223636 62 39 0.0 0.0 0.00 0.00 0.00 48 1014.3
20220927223134 62 10 1.0 2.0 0.00 0.00 0.00 48 1014.0
20220927222634 62 40 0.0 0.0 0.00 0.00 0.00 52 1014.3
20220927222133 62 17 0.0 0.0 0.00 0.00 0.00 47 1014.2
20220927221631 62 52 0.0 1.0 0.00 0.00 0.00 47 1014.2
20220927221130 62 49 1.0 2.0 0.00 0.00 0.00 48 1014.2
20220927220628 63 17 0.0 0.0 0.00 0.00 0.00 48 1014.0
20220927220125 63 52 2.0 2.0 0.00 0.00 0.00 44 1014.1
20220927215625 64 29 3.0 3.0 0.00 0.00 0.00 45 1014.1
20220927215124 65 337 3.0 3.0 0.00 0.00 0.00 44 1014.0
20220927214623 65 359 0.0 0.0 0.00 0.00 0.00 40 1013.8
20220927214121 65 96 1.0 1.0 0.00 0.00 0.00 40 1014.0
20220927213618 65 30 4.0 7.0 0.00 0.00 0.00 40 1013.7
20220927213117 66 50 2.0 5.0 0.00 0.00 0.00 38 1013.8
20220927212617 67 350 8.0 10.0 0.00 0.00 0.00 40 1013.6
20220927212117 67 341 1.0 2.0 0.00 0.00 0.00 40 1013.8
20220927211616 67 2 1.0 2.0 0.00 0.00 0.00 41 1013.6
20220927211115 66 338 2.0 2.0 0.00 0.00 0.00 42 1013.7
20220927210615 65 338 3.0 3.0 0.00 0.00 0.00 41 1013.5
20220927210115 64 37 2.0 3.0 0.00 0.00 0.00 44 1013.6
20220927205614 64 1 1.0 1.0 0.00 0.00 0.00 47 1013.5
20220927205114 64 57 1.0 2.0 0.00 0.00 0.00 46 1013.6
20220927204613 64 96 1.0 1.0 0.00 0.00 0.00 46 1013.6
20220927204112 64 358 4.0 6.0 0.00 0.00 0.00 44 1013.7
20220927203611 65 1 0.0 0.0 0.00 0.00 0.00 43 1013.6
20220927203111 64 67 3.0 3.0 0.00 0.00 0.00 45 1013.3
20220927202610 63 62 0.0 0.0 0.00 0.00 0.00 43 1013.5
20220927202109 63 41 4.0 5.0 0.00 0.00 0.00 45 1013.4
20220927201608 63 287 1.0 2.0 0.00 0.00 0.00 46 1013.4
20220927201107 64 11 3.0 5.0 0.00 0.00 0.00 43 1013.5
20220927200606 63 262 4.0 6.0 0.00 0.00 0.00 44 1013.5
20220927200106 64 199 4.0 7.0 0.00 0.00 0.00 46 1013.3
20220927195604 64 77 2.0 2.0 0.00 0.00 0.00 44 1013.6
20220927195103 64 154 4.0 5.0 0.00 0.00 0.00 46 1013.6
20220927194602 64 52 3.0 3.0 0.00 0.00 0.00 46 1013.4
20220927194101 65 64 4.0 6.0 0.00 0.00 0.00 43 1013.4
20220927193601 65 136 6.0 8.0 0.00 0.00 0.00 48 1013.3
20220927193101 65 210 1.0 2.0 0.00 0.00 0.00 43 1013.7
20220927192600 67 338 5.0 8.0 0.00 0.00 0.00 45 1013.5
20220927192100 67 84 0.0 1.0 0.00 0.00 0.00 45 1013.3
20220927191559 65 51 2.0 2.0 0.00 0.00 0.00 46 1013.3
20220927191058 63 122 3.0 3.0 0.00 0.00 0.00 46 1013.4
20220927190558 63 77 3.0 3.0 0.00 0.00 0.00 47 1013.4
20220927190058 64 6 6.0 7.0 0.00 0.00 0.00 44 1013.5
20220927185556 64 161 4.0 5.0 0.00 0.00 0.00 46 1013.4
20220927185056 63 55 3.0 3.0 0.00 0.00 0.00 47 1013.6
20220927184555 63 52 0.0 0.0 0.00 0.00 0.00 47 1013.7
20220927184054 65 341 5.0 6.0 0.00 0.00 0.00 44 1013.7
20220927183553 65 173 2.0 5.0 0.00 0.00 0.00 44 1013.7
20220927183052 65 122 4.0 6.0 0.00 0.00 0.00 47 1013.7
20220927182551 64 158 7.0 10.0 0.00 0.00 0.00 47 1013.7
20220927182050 63 73 5.0 7.0 0.00 0.00 0.00 47 1013.7
20220927181549 63 62 3.0 3.0 0.00 0.00 0.00 48 1013.6
20220927181048 63 157 4.0 5.0 0.00 0.00 0.00 50 1014.0
20220927180546 62 67 3.0 5.0 0.00 0.00 0.00 50 1013.8
20220927180046 62 57 5.0 8.0 0.00 0.00 0.00 49 1013.8
20220927175546 62 54 4.0 5.0 0.00 0.00 0.00 48 1013.7
20220927175045 63 67 5.0 7.0 0.00 0.00 0.00 49 1013.6
20220927174544 62 152 4.0 6.0 0.00 0.00 0.00 53 1013.6
20220927174044 61 3 6.0 7.0 0.00 0.00 0.00 52 1013.6
20220927173543 61 163 5.0 7.0 0.00 0.00 0.00 54 1013.6
20220927173042 62 150 5.0 7.0 0.00 0.00 0.00 52 1013.8
20220927172541 61 9 3.0 6.0 0.00 0.00 0.00 55 1013.7
20220927172041 61 28 1.0 2.0 0.00 0.00 0.00 54 1013.4
20220927171540 62 21 2.0 2.0 0.00 0.00 0.00 51 1013.5
20220927171040 64 43 2.0 6.0 0.00 0.00 0.00 49 1013.5
20220927170539 64 266 3.0 5.0 0.00 0.00 0.00 48 1013.6
20220927170037 63 153 5.0 7.0 0.00 0.00 0.00 53 1013.5
20220927165537 65 70 2.0 5.0 0.00 0.00 0.00 49 1013.5
20220927165036 64 76 1.0 1.0 0.00 0.00 0.00 48 1013.5
20220927164534 64 110 3.0 5.0 0.00 0.00 0.00 53 1013.4
20220927164034 63 35 1.0 1.0 0.00 0.00 0.00 56 1013.5
20220927163531 63 149 1.0 2.0 0.00 0.00 0.00 61 1013.2
20220927163029 63 25 0.0 1.0 0.00 0.00 0.00 54 1013.4
20220927162527 63 56 1.0 2.0 0.00 0.00 0.00 56 1013.7
20220927162026 60 68 1.0 2.0 0.00 0.00 0.00 62 1013.3
20220927161524 61 359 6.0 8.0 0.00 0.00 0.00 62 1013.3
20220927161023 62 62 3.0 5.0 0.00 0.00 0.00 60 1013.2
20220927160523 62 44 2.0 3.0 0.00 0.00 0.00 59 1013.4
20220927160022 62 101 2.0 3.0 0.00 0.00 0.00 58 1013.2
20220927155522 64 352 2.0 3.0 0.00 0.00 0.00 57 1013.0
20220927155022 64 75 2.0 3.0 0.00 0.00 0.00 60 1013.1
20220927154521 62 154 4.0 5.0 0.00 0.00 0.00 62 1013.1
20220927154020 61 5 1.0 1.0 0.00 0.00 0.00 62 1013.1
20220927153520 62 166 1.0 3.0 0.00 0.00 0.00 63 1013.2
20220927153020 60 12 1.0 2.0 0.00 0.00 0.00 63 1013.4
20220927152518 61 48 1.0 2.0 0.00 0.00 0.00 66 1013.1
20220927152018 60 121 4.0 5.0 0.00 0.00 0.00 65 1013.2
20220927151518 61 90 1.0 1.0 0.00 0.00 0.00 64 1013.2
20220927151016 60 82 2.0 2.0 0.00 0.00 0.00 66 1013.2
20220927150516 60 347 2.0 5.0 0.00 0.00 0.00 64 1012.9
20220927150014 60 30 1.0 1.0 0.00 0.00 0.00 69 1013.2
20220927145515 60 6 1.0 2.0 0.00 0.00 0.00 67 1013.1
20220927145014 59 55 1.0 1.0 0.00 0.00 0.00 67 1013.3
20220927144512 59 14 0.0 0.0 0.00 0.00 0.00 68 1013.1
20220927144011 58 174 3.0 5.0 0.00 0.00 0.00 70 1013.1
20220927143511 58 24 0.0 0.0 0.00 0.00 0.00 70 1013.1
20220927143010 58 97 0.0 1.0 0.00 0.00 0.00 71 1013.3
20220927142510 58 32 1.0 1.0 0.00 0.00 0.00 69 1013.1
20220927142010 56 57 0.0 0.0 0.00 0.00 0.00 76 1013.2
20220927141509 57 38 0.0 0.0 0.00 0.00 0.00 74 1013.1
20220927141008 56 13 1.0 2.0 0.00 0.00 0.00 74 1012.9
20220927140506 55 54 1.0 1.0 0.00 0.00 0.00 74 1012.8
20220927140006 55 334 1.0 1.0 0.00 0.00 0.00 77 1012.8
20220927135505 54 23 0.0 0.0 0.00 0.00 0.00 78 1012.7
20220927135005 54 108 2.0 2.0 0.00 0.00 0.00 76 1012.7
20220927134505 54 95 1.0 2.0 0.00 0.00 0.00 78 1012.7
20220927134003 53 109 3.0 3.0 0.00 0.00 0.00 78 1012.6
20220927133501 53 100 1.0 1.0 0.00 0.00 0.00 80 1012.6
20220927133001 53 65 0.0 0.0 0.00 0.00 0.00 83 1012.6
20220927132500 51 62 0.0 0.0 0.00 0.00 0.00 86 1012.7
20220927131959 51 81 0.0 1.0 0.00 0.00 0.00 87 1012.3
20220927131458 50 92 2.0 2.0 0.00 0.00 0.00 87 1012.5
20220927130958 49 90 1.0 1.0 0.00 0.00 0.00 91 1012.5
20220927130456 48 105 2.0 2.0 0.00 0.00 0.00 97 1012.6
20220927125955 47 71 0.0 0.0 0.00 0.00 0.00 99 1012.4
20220927125455 47 67 0.0 0.0 0.00 0.00 0.00 99 1012.4
20220927124954 46 67 0.0 0.0 0.00 0.00 0.00 99 1012.3
20220927124452 46 88 0.0 0.0 0.00 0.00 0.00 99 1012.4
20220927123950 45 86 0.0 0.0 0.00 0.00 0.00 99 1012.3
20220927123450 45 87 0.0 0.0 0.00 0.00 0.00 99 1012.2
20220927122949 44 84 0.0 0.0 0.00 0.00 0.00 99 1012.2
20220927122448 44 84 0.0 0.0 0.00 0.00 0.00 99 1012.2
20220927121946 43 84 0.0 0.0 0.00 0.00 0.00 99 1012.1
20220927121446 43 84 0.0 0.0 0.00 0.00 0.00 99 1012.1
20220927120945 42 84 0.0 0.0 0.00 0.00 0.00 99 1012.2
20220927120438 42 84 0.0 0.0 0.00 0.00 0.00 99 1012.0
20220927115938 42 84 0.0 0.0 0.00 0.00 0.00 99 1011.9
20220927115438 41 84 0.0 0.0 0.00 0.00 0.00 99 1011.9
20220927114938 42 84 0.0 0.0 0.00 0.00 0.00 99 1011.7
20220927114437 41 84 0.0 0.0 0.00 0.00 0.00 99 1011.7
20220927113937 41 82 0.0 0.0 0.00 0.00 0.00 99 1011.6
20220927113437 41 83 0.0 0.0 0.00 0.00 0.00 99 1011.7
20220927112936 41 81 0.0 0.0 0.00 0.00 0.00 99 1011.4
20220927112436 41 81 0.0 0.0 0.00 0.00 0.00 99 1011.3
20220927111934 41 81 0.0 0.0 0.00 0.00 0.00 99 1011.5
20220927111434 41 81 0.0 0.0 0.00 0.00 0.00 99 1011.2
20220927110933 41 81 0.0 0.0 0.00 0.00 0.00 99 1011.4
20220927110432 41 81 0.0 0.0 0.00 0.00 0.00 99 1011.2
20220927105931 41 81 0.0 0.0 0.00 0.00 0.00 99 1011.2
20220927105431 41 81 0.0 0.0 0.00 0.00 0.00 99 1011.3
20220927104930 41 81 0.0 0.0 0.00 0.00 0.00 99 1011.2
20220927104430 41 81 0.0 0.0 0.00 0.00 0.00 99 1011.2
20220927103928 42 81 0.0 0.0 0.00 0.00 0.00 99 1011.2
20220927103428 42 81 0.0 0.0 0.00 0.00 0.00 99 1011.3
20220927102926 42 81 0.0 0.0 0.00 0.00 0.00 99 1011.2
20220927102424 42 81 0.0 0.0 0.00 0.00 0.00 99 1011.2
20220927101923 42 81 0.0 0.0 0.00 0.00 0.00 99 1011.1
20220927101424 41 81 0.0 0.0 0.00 0.00 0.00 99 1010.9
20220927100922 42 81 0.0 0.0 0.00 0.00 0.00 99 1011.0
20220927100421 42 81 0.0 0.0 0.00 0.00 0.00 99 1011.0
20220927095920 42 81 0.0 0.0 0.00 0.00 0.00 99 1010.9
20220927095419 42 81 0.0 0.0 0.00 0.00 0.00 99 1010.7
20220927094918 42 81 0.0 0.0 0.00 0.00 0.00 99 1010.8
20220927094417 42 81 0.0 0.0 0.00 0.00 0.00 99 1010.7
20220927093915 42 81 0.0 0.0 0.00 0.00 0.00 99 1010.6
20220927093416 42 81 0.0 0.0 0.00 0.00 0.00 99 1010.6
20220927092915 42 81 0.0 0.0 0.00 0.00 0.00 99 1010.8
20220927092414 42 81 0.0 0.0 0.00 0.00 0.00 99 1010.6
20220927091913 42 81 0.0 0.0 0.00 0.00 0.00 99 1010.5
20220927091413 42 81 0.0 0.0 0.00 0.00 0.00 99 1010.7
20220927090911 42 81 0.0 0.0 0.00 0.00 0.00 99 1010.8
20220927090410 43 81 0.0 0.0 0.00 0.00 0.00 99 1010.8
20220927085910 43 81 0.0 0.0 0.00 0.00 0.00 99 1010.6
20220927085409 43 81 0.0 0.0 0.00 0.00 0.00 99 1010.8
20220927084908 42 81 0.0 0.0 0.00 0.00 0.00 99 1010.8
20220927084407 43 81 0.0 0.0 0.00 0.00 0.00 99 1010.5
20220927083907 43 81 0.0 0.0 0.00 0.00 0.00 99 1010.5
20220927083406 43 81 0.0 0.0 0.00 0.00 0.00 99 1010.6
20220927082905 43 81 0.0 0.0 0.00 0.00 0.00 99 1010.7
20220927082405 43 81 0.0 0.0 0.00 0.00 0.00 99 1010.8
20220927081904 43 85 0.0 0.0 0.00 0.00 0.00 99 1010.5
20220927081403 43 85 0.0 0.0 0.00 0.00 0.00 99 1010.5
20220927080903 43 85 0.0 0.0 0.00 0.00 0.00 99 1010.8
20220927080401 43 80 0.0 0.0 0.00 0.00 0.00 99 1010.3
20220927075901 43 80 0.0 0.0 0.00 0.00 0.00 99 1010.6
20220927075401 43 80 0.0 0.0 0.00 0.00 0.00 99 1010.6
20220927074900 43 80 0.0 0.0 0.00 0.00 0.00 99 1010.6
20220927074400 43 80 0.0 0.0 0.00 0.00 0.00 99 1010.6
20220927073859 44 80 0.0 0.0 0.00 0.00 0.00 99 1010.5
20220927073357 43 80 0.0 0.0 0.00 0.00 0.00 99 1010.6
20220927072857 43 81 0.0 0.0 0.00 0.00 0.00 99 1010.4
20220927072355 43 81 0.0 0.0 0.00 0.00 0.00 99 1010.7
20220927071855 43 78 0.0 1.0 0.00 0.00 0.00 99 1010.6
20220927071355 44 82 0.0 0.0 0.00 0.00 0.00 99 1010.7
20220927070854 44 80 0.0 0.0 0.00 0.00 0.00 99 1010.6
20220927070352 43 81 0.0 0.0 0.00 0.00 0.00 99 1010.7
20220927065851 43 92 0.0 1.0 0.00 0.00 0.00 99 1010.6
20220927065351 43 83 0.0 1.0 0.00 0.00 0.00 99 1010.7
20220927064849 44 81 0.0 0.0 0.00 0.00 0.00 99 1010.6
20220927064348 44 81 0.0 0.0 0.00 0.00 0.00 99 1010.8
20220927063847 44 81 0.0 0.0 0.00 0.00 0.00 99 1010.8
20220927063346 44 81 0.0 0.0 0.00 0.00 0.00 99 1010.7
20220927062845 44 81 0.0 0.0 0.00 0.00 0.00 99 1010.6
20220927062345 44 81 0.0 0.0 0.00 0.00 0.00 99 1010.7
20220927061845 44 81 0.0 0.0 0.00 0.00 0.00 99 1010.5
20220927061344 44 81 0.0 0.0 0.00 0.00 0.00 99 1010.5
20220927060843 44 81 0.0 0.0 0.00 0.00 0.00 99 1010.8
20220927060341 45 81 0.0 0.0 0.00 0.00 0.00 99 1010.6
20220927055841 45 81 0.0 0.0 0.00 0.00 0.00 99 1010.7
20220927055339 45 81 0.0 0.0 0.00 0.00 0.00 99 1010.7
20220927054837 45 81 0.0 0.0 0.00 0.00 0.00 99 1010.6
20220927054337 45 81 0.0 0.0 0.00 0.00 0.00 99 1010.6
20220927053837 45 79 0.0 0.0 0.00 0.00 0.00 99 1010.7
20220927053336 45 79 0.0 0.0 0.00 0.00 0.00 99 1010.6
20220927052836 45 79 0.0 0.0 0.00 0.00 0.00 99 1010.9
20220927052336 46 77 0.0 0.0 0.00 0.00 0.00 99 1010.9
20220927051836 46 74 0.0 0.0 0.00 0.00 0.00 99 1010.7
20220927051336 46 83 1.0 1.0 0.00 0.00 0.00 99 1011.1
20220927050834 46 76 0.0 0.0 0.00 0.00 0.00 99 1011.0
20220927050332 46 93 0.0 0.0 0.00 0.00 0.00 99 1011.1
20220927045833 46 74 0.0 0.0 0.00 0.00 0.00 99 1010.9
20220927045332 46 83 0.0 0.0 0.00 0.00 0.00 99 1011.0
20220927044831 46 74 0.0 0.0 0.00 0.00 0.00 99 1011.0
20220927044329 46 77 0.0 0.0 0.00 0.00 0.00 99 1011.1
20220927043828 46 79 0.0 0.0 0.00 0.00 0.00 99 1011.0
20220927043327 46 72 0.0 0.0 0.00 0.00 0.00 99 1010.9
20220927042827 46 81 0.0 0.0 0.00 0.00 0.00 99 1011.1
20220927042325 46 80 0.0 0.0 0.00 0.00 0.00 99 1011.0
20220927041824 46 99 0.0 0.0 0.00 0.00 0.00 99 1011.0
20220927041324 46 104 0.0 0.0 0.00 0.00 0.00 99 1010.9
20220927040823 47 76 0.0 0.0 0.00 0.00 0.00 99 1010.8
20220927040322 47 77 0.0 0.0 0.00 0.00 0.00 99 1010.9
20220927035821 47 80 0.0 0.0 0.00 0.00 0.00 99 1010.9
20220927035320 47 81 0.0 0.0 0.00 0.00 0.00 99 1011.0
20220927034820 47 81 0.0 0.0 0.00 0.00 0.00 99 1010.9
20220927034318 47 75 0.0 0.0 0.00 0.00 0.00 99 1011.1
20220927033817 47 80 0.0 0.0 0.00 0.00 0.00 99 1011.0
20220927033317 48 88 0.0 0.0 0.00 0.00 0.00 99 1011.1
20220927032815 48 86 0.0 1.0 0.00 0.00 0.00 99 1011.0
20220927032315 48 83 0.0 0.0 0.00 0.00 0.00 99 1010.9
20220927031814 48 85 0.0 0.0 0.00 0.00 0.00 99 1011.0
20220927031314 48 85 0.0 1.0 0.00 0.00 0.00 99 1010.8
20220927030814 48 101 1.0 1.0 0.00 0.00 0.00 99 1010.7
20220927030313 48 92 1.0 1.0 0.00 0.00 0.00 99 1010.9
20220927025812 48 79 0.0 0.0 0.00 0.00 0.00 98 1010.9
20220927025312 48 99 0.0 1.0 0.00 0.00 0.00 98 1010.7
20220927024812 49 101 1.0 1.0 0.00 0.00 0.00 98 1010.9
20220927024312 49 84 1.0 1.0 0.00 0.00 0.00 97 1010.9
20220927023810 49 80 0.0 1.0 0.00 0.00 0.00 97 1010.9
20220927023308 49 88 1.0 1.0 0.00 0.00 0.00 97 1010.7
20220927022806 49 84 0.0 1.0 0.00 0.00 0.00 97 1010.6
20220927022305 49 75 0.0 0.0 0.00 0.00 0.00 96 1010.5
20220927021805 49 86 0.0 0.0 0.00 0.00 0.00 96 1010.8
20220927021304 49 92 0.0 0.0 0.00 0.00 0.00 96 1010.6
20220927020803 50 90 1.0 1.0 0.00 0.00 0.00 95 1010.6
20220927020303 50 112 1.0 1.0 0.00 0.00 0.00 95 1010.6
20220927015803 50 162 1.0 2.0 0.00 0.00 0.00 95 1010.6
20220927015304 50 147 2.0 2.0 0.00 0.00 0.00 95 1010.6
20220927014800 50 109 1.0 1.0 0.00 0.00 0.00 95 1010.4
20220927014300 50 94 0.0 0.0 0.00 0.00 0.00 93 1010.3
20220927013759 50 93 0.0 0.0 0.00 0.00 0.00 93 1010.5
20220927013258 51 93 0.0 0.0 0.00 0.00 0.00 93 1010.2
20220927012757 51 94 0.0 0.0 0.00 0.00 0.00 92 1010.3
20220927012257 51 93 0.0 1.0 0.00 0.00 0.00 91 1010.3
20220927011756 51 93 0.0 0.0 0.00 0.00 0.00 91 1010.3
20220927011254 52 90 0.0 0.0 0.00 0.00 0.00 90 1010.3
20220927010753 52 90 0.0 1.0 0.00 0.00 0.00 89 1010.3
20220927010253 52 90 0.0 0.0 0.00 0.00 0.00 88 1010.3
20220927005752 53 90 0.0 0.0 0.00 0.00 0.00 87 1010.3
20220927005251 53 90 0.0 0.0 0.00 0.00 0.00 87 1009.9